Time;durP1;ratioP1;P1;durP2;ratioP2;P2;SDS_P1;SDS_P2;PMS_P1;PMS_P2;Temp;Humidity;BMP_temperature;BMP_pressure;BME280_temperature;BME280_humidity;BME280_pressure;Samples;Min_cycle;Max_cycle;Signal;HPM_P1;HPM_P2
2023/07/11 00:01:58;;;;;;;7.90;5.57;;;22.70;90.80;;;;;;5013580;28;20494;-56
2023/07/11 00:04:44;;;;;;;9.43;5.18;;;22.60;90.80;;;;;;5017176;28;20470;-56
2023/07/11 00:07:30;;;;;;;6.55;4.97;;;22.60;90.90;;;;;;5033082;28;20022;-56
2023/07/11 00:10:18;;;;;;;6.97;5.22;;;22.60;91.00;;;;;;5033079;28;20032;-56
2023/07/11 00:13:04;;;;;;;10.27;5.50;;;22.50;91.40;;;;;;5033015;28;20029;-53
2023/07/11 00:16:18;;;;;;;9.10;5.25;;;22.50;91.60;;;;;;5032214;28;20029;-57
2023/07/11 00:19:05;;;;;;;7.65;4.85;;;22.50;91.90;;;;;;5039449;28;20083;-56
2023/07/11 00:21:51;;;;;;;7.43;5.38;;;22.50;92.20;;;;;;5037823;28;20209;-57
2023/07/11 00:24:37;;;;;;;7.05;5.30;;;22.50;92.40;;;;;;5033385;28;20017;-56
2023/07/11 00:27:23;;;;;;;5.60;4.72;;;22.50;92.60;;;;;;5032425;28;20466;-56
2023/07/11 00:30:10;;;;;;;7.07;5.47;;;22.50;92.90;;;;;;5032935;28;20087;-56
2023/07/11 00:32:55;;;;;;;7.72;5.22;;;22.40;93.00;;;;;;5032665;28;20446;-57
2023/07/11 00:35:45;;;;;;;8.75;4.97;;;22.30;93.50;;;;;;5032542;28;20111;-56
2023/07/11 00:38:31;;;;;;;7.55;5.10;;;22.30;93.70;;;;;;5032535;28;20029;-55
2023/07/11 00:41:18;;;;;;;6.50;5.57;;;22.30;93.90;;;;;;5029240;28;20025;-56
2023/07/11 00:44:11;;;;;;;8.90;5.57;;;22.40;93.90;;;;;;5035946;28;20091;-54
2023/07/11 00:46:57;;;;;;;8.80;5.07;;;22.30;94.00;;;;;;5044308;28;20482;-56
2023/07/11 00:49:44;;;;;;;8.00;5.40;;;22.20;94.30;;;;;;5051575;28;20053;-56
2023/07/11 00:52:33;;;;;;;28.00;16.70;;;22.00;94.70;;;;;;5060248;28;20551;-54
2023/07/11 00:55:19;;;;;;;22.23;16.25;;;22.00;95.00;;;;;;5055674;28;20029;-55
2023/07/11 00:58:06;;;;;;;9.50;6.90;;;22.00;95.00;;;;;;5046191;28;20092;-53
2023/07/11 01:00:52;;;;;;;11.25;6.47;;;21.90;95.00;;;;;;5019150;28;20475;-55
2023/07/11 01:03:39;;;;;;;8.73;6.00;;;21.70;95.10;;;;;;5012033;28;20081;-56
2023/07/11 01:06:28;;;;;;;6.28;5.65;;;21.60;95.50;;;;;;5022701;28;20108;-57
2023/07/11 01:09:13;;;;;;;6.93;5.78;;;21.60;95.20;;;;;;5025223;28;20049;-60
2023/07/11 01:12:12;;;;;;;8.43;6.05;;;21.60;95.10;;;;;;5050110;28;20337;-54
2023/07/11 01:14:58;;;;;;;10.07;5.88;;;21.70;94.70;;;;;;5042636;28;20034;-57
2023/07/11 01:17:45;;;;;;;9.90;6.32;;;21.60;94.60;;;;;;5030068;28;20060;-58
2023/07/11 01:20:31;;;;;;;8.73;6.10;;;21.70;94.60;;;;;;5044380;28;20064;-57
2023/07/11 01:23:17;;;;;;;6.65;5.28;;;21.70;94.60;;;;;;5043987;28;20113;-56
2023/07/11 01:26:06;;;;;;;7.53;5.60;;;21.80;94.30;;;;;;5033226;28;20618;-55
2023/07/11 01:28:52;;;;;;;8.18;5.65;;;21.90;94.10;;;;;;5034856;28;20032;-56
2023/07/11 01:31:38;;;;;;;7.80;6.07;;;21.90;93.90;;;;;;5032187;28;20030;-54
2023/07/11 01:34:24;;;;;;;7.85;5.72;;;21.80;94.00;;;;;;5040057;28;20033;-57
2023/07/11 01:37:10;;;;;;;8.07;5.38;;;21.80;94.60;;;;;;5038515;28;20029;-57
2023/07/11 01:39:56;;;;;;;7.72;5.75;;;21.70;94.80;;;;;;5039816;28;20041;-57
2023/07/11 01:42:43;;;;;;;12.70;11.32;;;21.70;94.90;;;;;;5038995;28;20093;-55
2023/07/11 01:45:29;;;;;;;8.93;6.43;;;21.60;95.50;;;;;;5035022;28;20030;-55
2023/07/11 01:48:15;;;;;;;8.95;6.07;;;21.50;95.50;;;;;;5017044;28;20019;-55
2023/07/11 01:51:01;;;;;;;9.32;5.70;;;21.60;95.70;;;;;;5036147;28;20064;-56
2023/07/11 01:53:47;;;;;;;8.50;6.00;;;21.60;95.90;;;;;;5036927;28;20080;-53
2023/07/11 01:56:33;;;;;;;7.82;5.95;;;21.60;95.90;;;;;;5037974;28;20481;-55
2023/07/11 01:59:19;;;;;;;7.03;5.60;;;21.60;96.20;;;;;;5041044;28;20116;-56
2023/07/11 02:02:07;;;;;;;7.97;6.55;;;21.50;95.90;;;;;;5042159;28;20025;-57
2023/07/11 02:04:53;;;;;;;7.97;5.55;;;21.50;95.90;;;;;;5036206;28;20084;-55
2023/07/11 02:07:39;;;;;;;7.45;5.65;;;21.50;95.90;;;;;;5033849;28;20104;-53
2023/07/11 02:10:25;;;;;;;7.03;5.35;;;21.40;96.10;;;;;;5033608;28;20026;-53
2023/07/11 02:13:11;;;;;;;6.88;6.18;;;21.30;96.50;;;;;;5034417;28;20033;-52
2023/07/11 02:15:57;;;;;;;9.25;5.53;;;21.30;96.80;;;;;;5034165;28;20117;-56
2023/07/11 02:18:43;;;;;;;7.65;5.90;;;21.30;96.70;;;;;;5035221;28;20030;-54
2023/07/11 02:21:29;;;;;;;8.57;6.07;;;21.30;97.00;;;;;;5036000;28;20036;-55
2023/07/11 02:24:17;;;;;;;7.30;5.15;;;21.30;97.00;;;;;;5053512;28;20044;-52
2023/07/11 02:27:03;;;;;;;8.15;5.90;;;21.20;97.20;;;;;;5038583;28;20033;-54
2023/07/11 02:29:49;;;;;;;6.97;5.88;;;21.20;97.20;;;;;;5034843;28;20038;-52
2023/07/11 02:32:35;;;;;;;6.70;5.38;;;21.10;97.40;;;;;;5063899;28;20044;-54
2023/07/11 02:35:21;;;;;;;7.18;5.57;;;21.00;97.60;;;;;;5031909;28;20045;-54
2023/07/11 02:38:07;;;;;;;8.85;5.63;;;21.00;97.60;;;;;;5035334;28;20030;-51
2023/07/11 02:40:53;;;;;;;8.73;5.72;;;21.00;97.90;;;;;;5034694;28;20084;-51
2023/07/11 02:43:39;;;;;;;8.07;6.03;;;21.00;97.20;;;;;;5034495;28;20030;-56
2023/07/11 02:46:25;;;;;;;9.23;5.88;;;20.70;97.90;;;;;;5032688;28;20028;-54
2023/07/11 02:49:12;;;;;;;7.90;6.03;;;20.60;98.70;;;;;;5029869;28;20558;-51
2023/07/11 02:51:58;;;;;;;8.05;6.18;;;20.60;99.00;;;;;;5033907;28;20057;-56
2023/07/11 02:54:44;;;;;;;6.85;5.85;;;20.50;99.30;;;;;;5033803;28;20140;-54
2023/07/11 02:57:30;;;;;;;6.15;5.55;;;20.40;99.50;;;;;;5033295;28;20112;-58
2023/07/11 03:00:16;;;;;;;7.10;5.10;;;20.40;99.90;;;;;;5034169;28;20049;-58
2023/07/11 03:03:03;;;;;;;8.68;5.90;;;20.50;99.70;;;;;;5033623;28;20497;-58
2023/07/11 03:05:51;;;;;;;8.07;5.53;;;20.50;99.60;;;;;;5033382;28;20026;-55
2023/07/11 03:08:37;;;;;;;8.93;6.43;;;20.40;99.90;;;;;;5033514;28;20026;-52
2023/07/11 03:11:23;;;;;;;6.70;5.95;;;20.40;99.90;;;;;;5014622;28;20034;-52
2023/07/11 03:14:09;;;;;;;6.65;5.65;;;20.40;99.90;;;;;;5014251;28;20033;-56
2023/07/11 03:16:55;;;;;;;9.02;5.90;;;20.40;99.90;;;;;;5013785;28;20041;-53
2023/07/11 03:19:40;;;;;;;8.05;6.18;;;20.50;99.90;;;;;;5028236;28;20532;-51
2023/07/11 03:22:28;;;;;;;6.05;5.43;;;20.60;99.70;;;;;;5040591;28;20034;-52
2023/07/11 03:25:14;;;;;;;9.40;5.75;;;20.60;99.80;;;;;;5012742;28;20041;-54
2023/07/11 03:28:00;;;;;;;5.82;5.22;;;20.60;99.80;;;;;;5010110;28;20540;-54
2023/07/11 03:30:47;;;;;;;6.47;5.30;;;20.60;99.90;;;;;;5025720;28;20046;-55
2023/07/11 03:33:33;;;;;;;6.38;5.30;;;20.60;99.90;;;;;;5033321;28;20498;-55
2023/07/11 03:36:20;;;;;;;7.38;5.78;;;20.70;99.90;;;;;;5038383;28;20040;-55
2023/07/11 03:39:07;;;;;;;6.78;5.15;;;20.80;99.90;;;;;;5052064;28;20056;-57
2023/07/11 03:41:53;;;;;;;10.63;6.10;;;20.90;99.90;;;;;;5051777;28;20033;-55
2023/07/11 03:44:42;;;;;;;7.28;5.72;;;20.90;99.80;;;;;;5052816;28;20494;-55
2023/07/11 03:47:28;;;;;;;6.97;5.57;;;20.90;99.80;;;;;;5049604;28;20032;-54
2023/07/11 03:50:14;;;;;;;7.43;6.25;;;20.90;99.90;;;;;;5051066;28;20029;-53
2023/07/11 03:53:00;;;;;;;10.52;6.10;;;21.00;99.70;;;;;;5051228;28;20094;-56
2023/07/11 03:55:46;;;;;;;6.03;5.38;;;21.00;99.60;;;;;;5052367;28;20037;-55
2023/07/11 03:58:32;;;;;;;10.65;6.53;;;21.00;99.50;;;;;;5050106;28;20094;-57
2023/07/11 04:01:18;;;;;;;7.25;6.10;;;21.00;99.40;;;;;;5051093;28;20032;-53
2023/07/11 04:04:04;;;;;;;6.22;5.55;;;21.00;99.40;;;;;;5050320;28;20115;-54
2023/07/11 04:06:50;;;;;;;6.68;5.97;;;20.90;99.60;;;;;;5058418;28;20033;-54
2023/07/11 04:09:39;;;;;;;7.65;6.03;;;21.00;99.60;;;;;;5056071;28;20553;-51
2023/07/11 04:12:25;;;;;;;8.93;5.90;;;21.00;98.90;;;;;;5057343;28;20047;-53
2023/07/11 04:15:12;;;;;;;8.13;5.82;;;20.90;98.80;;;;;;5050287;28;20111;-53
2023/07/11 04:17:58;;;;;;;9.52;6.30;;;20.80;99.20;;;;;;5051666;28;20029;-53
2023/07/11 04:20:45;;;;;;;8.32;6.05;;;20.80;99.00;;;;;;5050905;28;20049;-53
2023/07/11 04:23:31;;;;;;;8.27;6.15;;;20.60;99.50;;;;;;5051704;28;20116;-51
2023/07/11 04:26:17;;;;;;;10.35;6.30;;;20.70;99.70;;;;;;5051565;28;20059;-54
2023/07/11 04:29:03;;;;;;;8.52;6.63;;;20.80;99.20;;;;;;5037876;28;20037;-54
2023/07/11 04:31:49;;;;;;;8.88;7.03;;;20.90;98.70;;;;;;5024672;28;20029;-52
2023/07/11 04:34:35;;;;;;;7.20;6.50;;;20.80;98.50;;;;;;5011025;28;20026;-56
2023/07/11 04:37:21;;;;;;;7.68;6.60;;;20.70;99.00;;;;;;5010490;28;20068;-55
2023/07/11 04:40:08;;;;;;;8.05;6.82;;;20.60;99.40;;;;;;5012158;28;20033;-51
2023/07/11 04:42:58;;;;;;;9.95;6.57;;;20.60;99.70;;;;;;5015973;28;20571;-53
2023/07/11 04:45:44;;;;;;;8.25;6.10;;;20.70;99.50;;;;;;5058790;28;20102;-54
2023/07/11 04:48:31;;;;;;;10.02;6.38;;;20.80;99.30;;;;;;5041485;28;20040;-54
2023/07/11 04:51:17;;;;;;;8.32;6.68;;;20.90;99.40;;;;;;5019924;28;20041;-56
2023/07/11 04:54:03;;;;;;;9.82;6.43;;;20.90;99.20;;;;;;5016776;28;20418;-55
2023/07/11 04:56:59;;;;;;;7.55;6.75;;;21.00;99.60;;;;;;5032170;28;20117;-55
2023/07/11 04:59:45;;;;;;;7.88;6.75;;;21.00;99.30;;;;;;5036555;28;20034;-56
2023/07/11 05:02:31;;;;;;;9.52;6.95;;;21.00;99.50;;;;;;5032777;28;20042;-53
2023/07/11 05:05:17;;;;;;;9.95;6.80;;;21.00;99.30;;;;;;5032447;28;20053;-53
2023/07/11 05:08:04;;;;;;;7.75;6.78;;;21.00;99.50;;;;;;5032886;28;20120;-51
2023/07/11 05:10:58;;;;;;;11.80;6.82;;;21.00;99.60;;;;;;5032183;28;20410;-53
2023/07/11 05:13:47;;;;;;;9.95;7.05;;;21.00;99.50;;;;;;5031717;28;20112;-56
2023/07/11 05:16:32;;;;;;;8.75;6.30;;;21.00;99.60;;;;;;5041069;28;20056;-55
2023/07/11 05:19:19;;;;;;;8.52;6.97;;;20.90;99.80;;;;;;5048977;28;20132;-52
2023/07/11 05:22:05;;;;;;;10.00;8.23;;;20.90;99.80;;;;;;5050066;28;20036;-55
2023/07/11 05:24:51;;;;;;;11.80;8.38;;;21.00;99.70;;;;;;5050384;28;20067;-54
2023/07/11 05:27:37;;;;;;;13.05;7.55;;;21.00;99.70;;;;;;5050095;28;20076;-57
2023/07/11 05:30:23;;;;;;;10.10;8.60;;;21.10;99.40;;;;;;5046501;28;20811;-54
2023/07/11 05:33:09;;;;;;;10.90;8.73;;;21.20;99.40;;;;;;5030600;28;20038;-55
2023/07/11 05:36:33;;;;;;;8.70;6.93;;;21.30;99.30;;;;;;5029314;28;20025;-56
2023/07/11 05:39:19;;;;;;;8.63;7.30;;;21.30;99.10;;;;;;5030395;28;20517;-57
2023/07/11 05:42:05;;;;;;;11.57;7.38;;;21.30;99.10;;;;;;5028490;28;20061;-56
2023/07/11 05:44:51;;;;;;;12.68;7.82;;;21.20;98.90;;;;;;5031289;28;20024;-56
2023/07/11 05:47:37;;;;;;;10.40;7.38;;;21.20;99.00;;;;;;5030705;28;20038;-57
2023/07/11 05:50:24;;;;;;;9.93;7.32;;;21.40;99.00;;;;;;5010559;28;20037;-57
2023/07/11 05:53:10;;;;;;;14.27;8.50;;;21.40;99.10;;;;;;5012528;28;20034;-51
2023/07/11 05:55:57;;;;;;;12.57;8.27;;;21.50;99.00;;;;;;5014331;28;20038;-52
2023/07/11 05:58:44;;;;;;;9.93;7.75;;;21.50;99.20;;;;;;5048323;28;20037;-56
2023/07/11 06:01:31;;;;;;;8.07;6.90;;;21.60;98.70;;;;;;5042882;28;20064;-52
2023/07/11 06:04:17;;;;;;;10.63;7.63;;;21.70;98.90;;;;;;5047997;28;20033;-51
2023/07/11 06:07:03;;;;;;;9.68;6.78;;;21.90;98.60;;;;;;5051829;28;20469;-51
2023/07/11 06:09:49;;;;;;;8.88;7.10;;;22.00;98.30;;;;;;5020004;28;20042;-54
2023/07/11 06:12:35;;;;;;;9.27;7.13;;;22.10;98.10;;;;;;5020509;28;20041;-51
2023/07/11 06:15:21;;;;;;;11.40;6.82;;;22.30;97.90;;;;;;5022706;28;20494;-52
2023/07/11 06:18:07;;;;;;;13.55;7.78;;;22.40;97.60;;;;;;5012907;28;20034;-53
2023/07/11 06:20:53;;;;;;;9.10;7.22;;;22.50;97.40;;;;;;5015158;28;20118;-52
2023/07/11 06:23:39;;;;;;;10.45;6.97;;;22.60;97.40;;;;;;5025591;28;20037;-54
2023/07/11 06:26:25;;;;;;;11.18;5.80;;;22.60;97.00;;;;;;5023273;28;20030;-54
2023/07/11 06:29:11;;;;;;;9.18;5.95;;;22.80;96.50;;;;;;5014230;28;20041;-51
2023/07/11 06:31:57;;;;;;;9.15;5.85;;;22.90;96.10;;;;;;5042887;28;20512;-51
2023/07/11 06:34:43;;;;;;;12.40;6.45;;;23.00;96.00;;;;;;5034585;28;20030;-51
2023/07/11 06:37:29;;;;;;;18.35;6.43;;;23.10;94.90;;;;;;5066198;28;20093;-55
2023/07/11 06:40:15;;;;;;;11.07;6.30;;;23.30;94.50;;;;;;5016751;28;20054;-52
2023/07/11 06:43:01;;;;;;;13.20;6.18;;;23.40;93.90;;;;;;5018336;28;20578;-51
2023/07/11 06:45:55;;;;;;;14.73;5.97;;;23.50;93.70;;;;;;5034819;28;20493;-55
2023/07/11 06:48:41;;;;;;;10.23;6.55;;;23.60;93.50;;;;;;5035440;28;20057;-58
2023/07/11 06:51:28;;;;;;;12.60;5.65;;;23.80;93.40;;;;;;5034375;28;20520;-54
2023/07/11 06:54:14;;;;;;;12.65;7.85;;;23.90;93.10;;;;;;5033477;28;20033;-52
2023/07/11 06:57:00;;;;;;;21.33;8.20;;;24.00;92.90;;;;;;5014484;28;20057;-55
2023/07/11 06:59:47;;;;;;;33.95;7.72;;;24.10;92.50;;;;;;5037683;28;20044;-51
2023/07/11 07:02:33;;;;;;;40.38;7.65;;;24.10;92.00;;;;;;5033740;28;20403;-54
2023/07/11 07:05:19;;;;;;;22.20;6.72;;;24.20;92.20;;;;;;5038207;28;20497;-56
2023/07/11 07:08:05;;;;;;;15.23;5.40;;;24.30;92.00;;;;;;5063209;28;20541;-57
2023/07/11 07:10:52;;;;;;;9.30;5.30;;;24.40;91.60;;;;;;5036074;28;20025;-58
2023/07/11 07:13:38;;;;;;;12.35;5.32;;;24.30;91.10;;;;;;5034463;28;20033;-56
2023/07/11 07:16:24;;;;;;;15.15;5.95;;;24.40;91.20;;;;;;5044541;28;20037;-57
2023/07/11 07:19:11;;;;;;;24.08;10.05;;;24.40;91.20;;;;;;5052124;28;20029;-54
2023/07/11 07:21:57;;;;;;;16.15;8.25;;;24.50;90.80;;;;;;5053270;28;20071;-54
2023/07/11 07:24:44;;;;;;;12.93;6.53;;;24.40;90.90;;;;;;5046444;28;20033;-55
2023/07/11 07:27:30;;;;;;;16.02;6.40;;;24.50;90.90;;;;;;5025831;28;20034;-52
2023/07/11 07:30:16;;;;;;;10.98;6.07;;;24.60;91.00;;;;;;5050230;28;20418;-56
2023/07/11 07:33:02;;;;;;;10.63;5.38;;;24.80;90.80;;;;;;5052804;28;20119;-56
2023/07/11 07:35:48;;;;;;;8.20;5.28;;;24.90;90.70;;;;;;5051625;28;20041;-55
2023/07/11 07:38:34;;;;;;;7.60;4.85;;;25.00;90.60;;;;;;5051589;28;20504;-53
2023/07/11 07:41:21;;;;;;;8.95;5.50;;;25.10;90.20;;;;;;5036543;28;20033;-55
2023/07/11 07:44:07;;;;;;;12.15;5.50;;;25.10;90.00;;;;;;5033569;28;20034;-55
2023/07/11 07:46:53;;;;;;;6.45;5.00;;;25.20;90.00;;;;;;5033291;28;20489;-53
2023/07/11 07:49:39;;;;;;;12.00;5.97;;;25.20;89.80;;;;;;5032363;28;20045;-55
2023/07/11 07:52:25;;;;;;;8.40;5.28;;;25.20;89.60;;;;;;5034023;28;20033;-56
2023/07/11 07:55:11;;;;;;;9.77;6.53;;;25.20;89.50;;;;;;5034245;28;20033;-53
2023/07/11 07:57:57;;;;;;;10.02;6.68;;;25.20;89.40;;;;;;5032969;28;20058;-53
2023/07/11 08:00:43;;;;;;;10.27;5.47;;;25.40;88.80;;;;;;5033834;28;20033;-55
2023/07/11 08:03:29;;;;;;;15.32;10.95;;;25.40;88.10;;;;;;5046543;28;20130;-55
2023/07/11 08:06:16;;;;;;;7.45;5.53;;;25.30;87.40;;;;;;5032863;28;20075;-55
2023/07/11 08:09:02;;;;;;;6.95;5.07;;;25.50;87.40;;;;;;5033776;28;20036;-56
2023/07/11 08:11:48;;;;;;;8.38;5.65;;;25.70;86.90;;;;;;5033703;28;20486;-55
2023/07/11 08:14:36;;;;;;;6.15;5.05;;;25.80;86.60;;;;;;5034118;28;20429;-52
2023/07/11 08:17:22;;;;;;;10.00;5.50;;;25.80;86.00;;;;;;5033290;28;20033;-55
2023/07/11 08:20:08;;;;;;;9.05;5.18;;;25.80;86.20;;;;;;5059433;28;20061;-54
2023/07/11 08:22:54;;;;;;;8.55;5.32;;;25.90;85.90;;;;;;5033406;28;20155;-56
2023/07/11 08:25:41;;;;;;;6.55;5.40;;;26.00;84.90;;;;;;5033102;28;20156;-55
2023/07/11 08:28:27;;;;;;;6.25;5.00;;;25.90;84.80;;;;;;5033552;28;20065;-53
2023/07/11 08:31:12;;;;;;;8.35;5.20;;;25.90;84.20;;;;;;5033968;28;20064;-56
2023/07/11 08:33:58;;;;;;;6.90;5.53;;;25.80;84.20;;;;;;5033478;28;20022;-53
2023/07/11 08:36:46;;;;;;;10.85;7.43;;;25.90;84.10;;;;;;5033347;28;20029;-57
2023/07/11 08:39:32;;;;;;;7.80;5.40;;;26.00;83.90;;;;;;5038004;28;20029;-55
2023/07/11 08:42:18;;;;;;;7.05;5.60;;;26.10;84.00;;;;;;5042901;28;20033;-53
2023/07/11 08:45:19;;;;;;;11.55;5.43;;;26.30;84.00;;;;;;5033777;28;20029;-57
2023/07/11 08:48:05;;;;;;;7.32;5.45;;;26.40;83.50;;;;;;5032525;28;20087;-56
2023/07/11 08:51:17;;;;;;;9.05;5.38;;;26.50;83.30;;;;;;5032887;28;20022;-58
2023/07/11 08:54:27;;;;;;;15.98;6.70;;;26.70;82.40;;;;;;5031171;28;20040;-55
2023/07/11 08:57:16;;;;;;;13.00;5.88;;;26.60;82.60;;;;;;5031735;28;20108;-55
2023/07/11 09:00:08;;;;;;;11.98;5.28;;;26.80;82.50;;;;;;5033091;28;20041;-53
2023/07/11 09:03:16;;;;;;;8.10;4.88;;;26.90;82.40;;;;;;5030215;28;20026;-54
2023/07/11 09:06:03;;;;;;;9.57;5.65;;;27.20;82.60;;;;;;5034272;28;20102;-52
2023/07/11 09:08:54;;;;;;;11.57;6.13;;;27.20;81.90;;;;;;5041154;28;20017;-58
2023/07/11 09:11:51;;;;;;;8.50;5.38;;;27.20;81.40;;;;;;5038774;28;20033;-55
2023/07/11 09:14:47;;;;;;;8.05;5.60;;;27.10;81.60;;;;;;5031817;28;20638;-57
2023/07/11 09:17:53;;;;;;;17.98;10.15;;;27.10;81.40;;;;;;5021563;28;20033;-57
2023/07/11 09:20:50;;;;;;;9.57;6.28;;;27.30;80.90;;;;;;5044453;28;20340;-55
2023/07/11 09:24:13;;;;;;;7.75;5.50;;;27.20;80.60;;;;;;5032810;28;20029;-52
2023/07/11 09:27:16;;;;;;;7.57;5.38;;;27.20;80.20;;;;;;5028844;28;20026;-51
2023/07/11 09:30:48;;;;;;;8.80;5.25;;;27.40;80.00;;;;;;5031205;28;20330;-56
2023/07/11 09:33:39;;;;;;;9.82;5.82;;;27.60;79.70;;;;;;5032222;28;20037;-55
2023/07/11 09:36:32;;;;;;;9.13;5.05;;;27.70;78.80;;;;;;5030149;28;20490;-57
2023/07/11 09:39:35;;;;;;;6.68;4.90;;;27.90;78.50;;;;;;5034976;28;20033;-55
2023/07/11 09:42:50;;;;;;;7.88;5.38;;;27.90;78.00;;;;;;5041402;28;20030;-57
2023/07/11 09:45:37;;;;;;;;;;;27.90;77.50;;;;;;5038871;28;20030;-57
2023/07/11 09:48:27;;;;;;;8.25;5.32;;;27.90;77.50;;;;;;5042780;28;19928;-55
2023/07/11 09:51:31;;;;;;;7.38;5.00;;;28.10;76.80;;;;;;5044378;28;20477;-55
2023/07/11 09:54:18;;;;;;;13.65;5.32;;;28.00;76.70;;;;;;5043285;28;20108;-57
2023/07/11 09:57:10;;;;;;;8.70;5.68;;;28.10;76.20;;;;;;5039800;28;20079;-57
2023/07/11 10:00:01;;;;;;;6.10;5.13;;;28.10;76.30;;;;;;5045601;28;20053;-57
2023/07/11 10:02:48;;;;;;;7.72;5.05;;;28.30;75.90;;;;;;5042421;28;20013;-55
2023/07/11 10:05:34;;;;;;;5.38;4.82;;;28.40;76.00;;;;;;5044172;28;20087;-52
2023/07/11 10:08:28;;;;;;;9.07;5.40;;;28.50;75.00;;;;;;5043121;28;20018;-52
2023/07/11 10:11:14;;;;;;;6.90;4.95;;;28.60;74.90;;;;;;5048351;28;20112;-55
2023/07/11 10:14:00;;;;;;;6.82;5.28;;;28.70;74.70;;;;;;5034284;28;20039;-56
2023/07/11 10:16:47;;;;;;;9.77;4.97;;;28.90;74.90;;;;;;5044007;28;20116;-55
2023/07/11 10:19:33;;;;;;;7.28;4.97;;;29.10;74.40;;;;;;5039506;28;20025;-59
2023/07/11 10:22:27;;;;;;;9.02;5.43;;;29.00;74.50;;;;;;5035509;28;20616;-53
2023/07/11 10:25:19;;;;;;;8.05;5.97;;;28.90;73.90;;;;;;5038894;28;20036;-54
2023/07/11 10:28:16;;;;;;;9.88;5.45;;;28.90;74.10;;;;;;5034226;28;20041;-54
2023/07/11 10:31:16;;;;;;;7.95;5.53;;;28.90;74.40;;;;;;5031111;28;20017;-58
2023/07/11 10:34:15;;;;;;;8.30;5.78;;;28.90;74.00;;;;;;5014642;28;20116;-53
2023/07/11 10:37:17;;;;;;;5.90;5.05;;;29.00;73.80;;;;;;5023710;28;20561;-55
2023/07/11 10:40:34;;;;;;;8.50;5.55;;;29.10;73.10;;;;;;5028143;28;20168;-55
2023/07/11 10:43:32;;;;;;;7.35;5.28;;;29.10;73.60;;;;;;5033065;28;20025;-54
2023/07/11 10:46:25;;;;;;;8.80;5.40;;;28.90;73.70;;;;;;5034216;28;20435;-55
2023/07/11 10:49:37;;;;;;;10.10;5.38;;;28.90;74.00;;;;;;5033767;28;20429;-51
2023/07/11 10:52:24;;;;;;;9.13;5.65;;;29.20;73.70;;;;;;5012932;28;20041;-54
2023/07/11 10:55:19;;;;;;;7.07;5.88;;;29.20;73.40;;;;;;5043507;28;20079;-58
2023/07/11 10:58:08;;;;;;;8.95;5.95;;;29.40;73.00;;;;;;5057189;28;20493;-52
2023/07/11 11:01:10;;;;;;;8.05;5.90;;;29.50;73.20;;;;;;5045129;28;20780;-54
2023/07/11 11:04:28;;;;;;;6.72;5.80;;;29.40;73.20;;;;;;5031124;28;20518;-57
2023/07/11 11:07:25;;;;;;;9.18;5.95;;;29.50;73.20;;;;;;5032269;28;20017;-52
2023/07/11 11:10:26;;;;;;;10.23;6.43;;;29.60;72.70;;;;;;5012754;28;20030;-58
2023/07/11 11:13:43;;;;;;;12.07;7.20;;;29.80;72.20;;;;;;5014145;28;20033;-55
2023/07/11 11:16:40;;;;;;;10.80;6.68;;;29.50;72.10;;;;;;5034828;28;20041;-56
2023/07/11 11:19:29;;;;;;;8.98;6.90;;;29.20;72.60;;;;;;5033259;28;20025;-56
2023/07/11 11:22:36;;;;;;;8.45;6.63;;;29.10;72.50;;;;;;5031558;28;20075;-54
2023/07/11 11:25:47;;;;;;;11.60;6.70;;;29.00;72.90;;;;;;5031697;28;20517;-55
2023/07/11 11:28:54;;;;;;;14.48;7.38;;;29.00;73.20;;;;;;5034930;28;20049;-53
2023/07/11 11:32:00;;;;;;;8.85;6.78;;;29.00;72.80;;;;;;5042558;28;20105;-59
2023/07/11 11:35:14;;;;;;;12.13;8.05;;;29.00;72.90;;;;;;5034973;28;20600;-57
2023/07/11 11:38:51;;;;;;;8.73;6.72;;;29.30;73.60;;;;;;5047566;28;20519;-56
2023/07/11 11:41:46;;;;;;;9.27;6.63;;;29.50;73.30;;;;;;5023643;28;20034;-58
2023/07/11 11:44:50;;;;;;;14.20;10.65;;;29.70;72.90;;;;;;5034656;28;20029;-54
2023/07/11 11:47:37;;;;;;;10.27;7.25;;;29.90;72.50;;;;;;5052291;28;20025;-56
2023/07/11 11:50:24;;;;;;;11.90;8.10;;;30.30;72.40;;;;;;5043051;28;20043;-56
2023/07/11 11:53:30;;;;;;;9.57;7.78;;;30.50;71.40;;;;;;5032171;28;20474;-55
2023/07/11 11:56:19;;;;;;;8.52;6.88;;;30.40;71.40;;;;;;5027117;28;20429;-55
2023/07/11 11:59:12;;;;;;;9.50;7.50;;;30.10;72.00;;;;;;5028361;28;20064;-56
2023/07/11 12:02:10;;;;;;;9.82;7.60;;;30.30;72.30;;;;;;5030529;28;20024;-56
2023/07/11 12:05:21;;;;;;;10.38;8.25;;;30.60;71.90;;;;;;5043927;28;20041;-58
2023/07/11 12:08:25;;;;;;;10.07;8.63;;;30.80;71.60;;;;;;5051047;28;20108;-57
2023/07/11 12:11:11;;;;;;;11.02;8.27;;;31.00;71.00;;;;;;5011920;28;20646;-56
2023/07/11 12:14:25;;;;;;;14.88;8.35;;;30.80;70.70;;;;;;5016616;28;20032;-57
2023/07/11 12:17:32;;;;;;;9.15;8.18;;;31.00;70.70;;;;;;5032276;28;20182;-55
2023/07/11 12:20:25;;;;;;;12.88;8.27;;;31.20;70.50;;;;;;5031196;28;20107;-57
2023/07/11 12:23:16;;;;;;;10.80;8.60;;;31.20;70.50;;;;;;5012286;28;20030;-56
2023/07/11 12:26:14;;;;;;;10.18;8.25;;;31.20;70.80;;;;;;5012121;28;20054;-56
2023/07/11 12:29:38;;;;;;;11.88;9.13;;;31.20;70.80;;;;;;5011976;28;20040;-56
2023/07/11 12:32:30;;;;;;;11.80;9.07;;;31.40;70.30;;;;;;5024873;28;20453;-50
2023/07/11 12:35:22;;;;;;;12.15;9.80;;;31.40;70.00;;;;;;5050949;28;20078;-56
2023/07/11 12:38:19;;;;;;;11.75;10.02;;;31.30;70.00;;;;;;5025284;28;20520;-55
2023/07/11 12:41:05;;;;;;;9.05;8.15;;;31.50;70.60;;;;;;5031187;28;20026;-55
2023/07/11 12:43:53;;;;;;;9.70;8.73;;;31.80;70.20;;;;;;5043729;28;20025;-55
2023/07/11 12:46:42;;;;;;;10.45;9.23;;;32.00;69.30;;;;;;5049978;28;20044;-67
2023/07/11 12:49:30;;;;;;;9.80;8.90;;;32.20;69.50;;;;;;5030797;28;20029;-57
2023/07/11 12:52:19;;;;;;;11.10;8.80;;;32.50;69.40;;;;;;5032006;28;20075;-54
2023/07/11 12:55:10;;;;;;;11.07;9.60;;;32.80;69.20;;;;;;5031485;28;20026;-52
2023/07/11 12:57:57;;;;;;;10.65;9.65;;;33.00;68.30;;;;;;5029281;28;20033;-58
2023/07/11 13:00:44;;;;;;;10.25;9.18;;;32.70;67.60;;;;;;5028578;28;20025;-53
2023/07/11 13:03:38;;;;;;;10.98;9.45;;;32.80;67.90;;;;;;5046250;28;20383;-55
2023/07/11 13:06:26;;;;;;;11.40;10.20;;;33.00;67.90;;;;;;5051700;28;20025;-61
2023/07/11 13:09:12;;;;;;;11.80;10.57;;;33.20;67.70;;;;;;5053202;28;20025;-61
2023/07/11 13:11:59;;;;;;;11.90;10.70;;;33.20;67.20;;;;;;5038210;28;20029;-61
2023/07/11 13:14:47;;;;;;;13.13;11.75;;;33.40;67.70;;;;;;5033965;28;20456;-61
2023/07/11 13:17:33;;;;;;;13.50;12.02;;;33.40;66.60;;;;;;5036723;28;20029;-58
2023/07/11 13:20:26;;;;;;;12.90;11.63;;;33.40;66.60;;;;;;5045405;28;20068;-59
2023/07/11 13:23:12;;;;;;;14.57;12.23;;;33.50;66.10;;;;;;5049028;28;20096;-61
2023/07/11 13:25:58;;;;;;;12.10;10.95;;;33.60;66.90;;;;;;5048852;28;20267;-59
2023/07/11 13:28:45;;;;;;;15.07;11.05;;;33.70;66.20;;;;;;5050143;28;20057;-57
2023/07/11 13:31:33;;;;;;;12.57;11.38;;;33.70;66.30;;;;;;5048468;28;20021;-58
2023/07/11 13:34:28;;;;;;;16.70;11.40;;;33.90;66.10;;;;;;5035168;28;20078;-57
2023/07/11 13:37:36;;;;;;;12.93;11.10;;;33.90;65.70;;;;;;5029211;28;20076;-58
2023/07/11 13:40:37;;;;;;;14.32;11.30;;;34.10;65.70;;;;;;5028262;28;20033;-55
2023/07/11 13:43:24;;;;;;;13.18;11.88;;;34.30;65.90;;;;;;5028510;28;20478;-55
2023/07/11 13:46:15;;;;;;;13.27;11.25;;;34.40;65.30;;;;;;5045667;28;20029;-58
2023/07/11 13:49:21;;;;;;;12.52;11.15;;;34.40;65.40;;;;;;5055987;28;20051;-58
2023/07/11 13:52:33;;;;;;;16.20;14.40;;;34.60;64.90;;;;;;5048150;28;20085;-59
2023/07/11 13:55:36;;;;;;;14.55;13.05;;;34.80;64.90;;;;;;5023162;28;20507;-57
2023/07/11 13:58:22;;;;;;;14.93;13.45;;;34.60;64.00;;;;;;5057186;28;20069;-58
2023/07/11 14:01:14;;;;;;;16.10;12.45;;;34.10;64.50;;;;;;5031536;28;20590;-57
2023/07/11 14:04:00;;;;;;;14.35;12.85;;;33.60;65.40;;;;;;5031664;28;20026;-56
2023/07/11 14:06:46;;;;;;;13.85;12.55;;;33.50;65.90;;;;;;5032133;28;20071;-57
2023/07/11 14:09:32;;;;;;;14.15;12.68;;;33.80;65.60;;;;;;5038139;28;20551;-58
2023/07/11 14:12:19;;;;;;;13.43;12.23;;;34.10;65.00;;;;;;5034741;28;20030;-59
2023/07/11 14:15:15;;;;;;;15.70;12.35;;;34.50;65.00;;;;;;5013757;28;20110;-59
2023/07/11 14:18:01;;;;;;;16.23;12.48;;;34.90;64.30;;;;;;5012903;28;20018;-60
2023/07/11 14:20:47;;;;;;;13.32;12.02;;;35.00;64.20;;;;;;5034556;28;20034;-58
2023/07/11 14:23:33;;;;;;;13.38;12.18;;;35.30;64.00;;;;;;5040542;28;20040;-59
2023/07/11 14:26:19;;;;;;;13.75;12.43;;;35.50;63.90;;;;;;5046680;28;20077;-58
2023/07/11 14:29:24;;;;;;;42.85;34.05;;;35.40;63.60;;;;;;5057758;28;20045;-58
2023/07/11 14:32:13;;;;;;;16.00;14.30;;;35.30;64.40;;;;;;5031948;28;20196;-52
2023/07/11 14:34:59;;;;;;;14.38;12.93;;;35.30;64.20;;;;;;5036384;28;20025;-55
2023/07/11 14:37:46;;;;;;;15.00;13.48;;;35.10;63.50;;;;;;5042434;28;20041;-58
2023/07/11 14:40:32;;;;;;;15.38;13.32;;;34.70;64.00;;;;;;5037904;28;20021;-57